Time;durP1;ratioP1;P1;durP2;ratioP2;P2;SDS_P1;SDS_P2;PMS_P1;PMS_P2;Temp;Humidity;BMP_temperature;BMP_pressure;BME280_temperature;BME280_humidity;BME280_pressure;Samples;Min_cycle;Max_cycle;Signal;HPM_P1;HPM_P2
2023/10/03 00:00:33;;;;;;;;;;;17.70;99.90;;;;;;5030920;28;19972;-32
2023/10/03 00:03:00;;;;;;;;;;;17.70;99.90;;;;;;5063729;28;19925;-32
2023/10/03 00:05:29;;;;;;;;;;;17.60;99.90;;;;;;5029558;28;19965;-31
2023/10/03 00:07:56;;;;;;;;;;;17.60;99.90;;;;;;5031135;28;19925;-31
2023/10/03 00:10:22;;;;;;;;;;;17.60;99.90;;;;;;5030223;28;20610;-32
2023/10/03 00:12:51;;;;;;;;;;;17.60;99.90;;;;;;5031334;28;19940;-31
2023/10/03 00:15:21;;;;;;;;;;;17.60;99.90;;;;;;5030724;28;20321;-31
2023/10/03 00:17:47;;;;;;;;;;;17.60;99.90;;;;;;5068106;28;20300;-31
2023/10/03 00:20:16;;;;;;;;;;;17.60;99.90;;;;;;5063274;28;20396;-31
2023/10/03 00:22:42;;;;;;;;;;;17.60;99.90;;;;;;5031682;28;20460;-31
2023/10/03 00:25:11;;;;;;;;;;;17.60;99.90;;;;;;5030374;28;19948;-32
2023/10/03 00:27:38;;;;;;;;;;;17.60;99.90;;;;;;5012009;28;19929;-32
2023/10/03 00:30:10;;;;;;;;;;;17.60;99.90;;;;;;5032095;28;20372;-31
2023/10/03 00:32:40;;;;;;;;;;;17.60;99.90;;;;;;5036085;28;19987;-32
2023/10/03 00:35:07;;;;;;;;;;;17.60;99.90;;;;;;5044995;28;19929;-31
2023/10/03 00:37:33;;;;;;;;;;;17.70;99.90;;;;;;5053283;28;19932;-32
2023/10/03 00:40:04;;;;;;;;;;;17.70;99.90;;;;;;5038708;28;20347;-31
2023/10/03 00:42:31;;;;;;;;;;;17.70;99.90;;;;;;5033207;28;19976;-33
2023/10/03 00:44:58;;;;;;;;;;;17.70;99.90;;;;;;5036341;28;19936;-31
2023/10/03 00:47:25;;;;;;;;;;;17.60;99.90;;;;;;5032417;28;20317;-31
2023/10/03 00:49:53;;;;;;;;;;;17.60;99.90;;;;;;5034301;28;19961;-32
2023/10/03 00:52:20;;;;;;;;;;;17.60;99.90;;;;;;5032408;28;20442;-31
2023/10/03 00:54:48;;;;;;;;;;;17.60;99.90;;;;;;5036201;28;19962;-32
2023/10/03 00:57:15;;;;;;;;;;;17.70;99.90;;;;;;5035518;28;19925;-31
2023/10/03 00:59:41;;;;;;;;;;;17.70;99.90;;;;;;5048559;28;20316;-31
2023/10/03 01:02:08;;;;;;;;;;;17.70;99.90;;;;;;5032794;28;20343;-31
2023/10/03 01:04:36;;;;;;;;;;;17.70;99.90;;;;;;5033114;28;19929;-31
2023/10/03 01:07:04;;;;;;;;;;;17.70;99.90;;;;;;5033969;28;19933;-32
2023/10/03 01:09:33;;;;;;;;;;;17.70;99.90;;;;;;5038551;28;19925;-31
2023/10/03 01:12:00;;;;;;;;;;;17.60;99.90;;;;;;5033221;28;19932;-31
2023/10/03 01:14:27;;;;;;;;;;;17.70;99.90;;;;;;5033496;28;19933;-31
2023/10/03 01:16:53;;;;;;;;;;;17.70;99.90;;;;;;5033310;28;19925;-31
2023/10/03 01:19:24;;;;;;;;;;;17.70;99.90;;;;;;5032763;28;19979;-31
2023/10/03 01:21:51;;;;;;;;;;;17.70;99.90;;;;;;5031862;28;20300;-31
2023/10/03 01:24:24;;;;;;;;;;;17.70;99.90;;;;;;5033327;28;19929;-31
2023/10/03 01:26:52;;;;;;;;;;;17.60;99.90;;;;;;5033128;28;19926;-31
2023/10/03 01:29:19;;;;;;;;;;;17.70;99.90;;;;;;5033007;28;19925;-31
2023/10/03 01:31:47;;;;;;;;;;;17.60;99.90;;;;;;5031637;28;20068;-32
2023/10/03 01:34:15;;;;;;;;;;;17.70;99.90;;;;;;5031778;28;19983;-32
2023/10/03 01:36:41;;;;;;;;;;;17.60;99.90;;;;;;5032333;28;19933;-31
2023/10/03 01:39:09;;;;;;;;;;;17.60;99.90;;;;;;5034189;28;19925;-31
2023/10/03 01:41:37;;;;;;;;;;;17.60;99.90;;;;;;5032482;28;20030;-31
2023/10/03 01:44:04;;;;;;;;;;;17.60;99.90;;;;;;5031620;28;20373;-31
2023/10/03 01:46:31;;;;;;;;;;;17.60;99.90;;;;;;5032271;28;19932;-31
2023/10/03 01:48:57;;;;;;;;;;;17.60;99.90;;;;;;5032854;28;19971;-32
2023/10/03 01:51:24;;;;;;;;;;;17.60;99.90;;;;;;5033169;28;19932;-31
2023/10/03 01:53:51;;;;;;;;;;;17.60;99.90;;;;;;5033542;28;19972;-31
2023/10/03 01:56:18;;;;;;;;;;;17.60;99.90;;;;;;5033260;28;19932;-33
2023/10/03 01:58:46;;;;;;;;;;;17.60;99.90;;;;;;5038969;28;19925;-31
2023/10/03 02:01:13;;;;;;;;;;;17.60;99.90;;;;;;5032879;28;19940;-33
2023/10/03 02:03:42;;;;;;;;;;;17.60;99.90;;;;;;5034343;28;19939;-32
2023/10/03 02:06:09;;;;;;;;;;;17.60;99.90;;;;;;5034241;28;20343;-32
2023/10/03 02:08:36;;;;;;;;;;;17.60;99.90;;;;;;5032034;28;19925;-33
2023/10/03 02:11:05;;;;;;;;;;;17.60;99.90;;;;;;5032983;28;19925;-32
2023/10/03 02:13:34;;;;;;;;;;;17.60;99.90;;;;;;5032876;28;19925;-32
2023/10/03 02:16:02;;;;;;;;;;;17.60;99.90;;;;;;5032256;28;19948;-31
2023/10/03 02:18:29;;;;;;;;;;;17.60;99.90;;;;;;5031855;28;19925;-31
2023/10/03 02:21:01;;;;;;;;;;;17.60;99.90;;;;;;5031075;28;19971;-31
2023/10/03 02:23:27;;;;;;;;;;;17.70;99.90;;;;;;5031418;28;20339;-31
2023/10/03 02:25:55;;;;;;;;;;;17.60;99.90;;;;;;5029661;28;19975;-32
2023/10/03 02:28:22;;;;;;;;;;;17.70;99.90;;;;;;5030318;28;19929;-31
2023/10/03 02:30:50;;;;;;;;;;;17.70;99.90;;;;;;5033064;28;20408;-31
2023/10/03 02:33:22;;;;;;;;;;;17.70;99.90;;;;;;5031358;28;19935;-31
2023/10/03 02:35:50;;;;;;;;;;;17.70;99.90;;;;;;5064230;28;19925;-31
2023/10/03 02:38:24;;;;;;;;;;;17.70;99.90;;;;;;5038152;28;19936;-31
2023/10/03 02:40:50;;;;;;;;;;;17.70;99.90;;;;;;5046975;28;19928;-31
2023/10/03 02:43:17;;;;;;;;;;;17.70;99.90;;;;;;5035621;28;19933;-31
2023/10/03 02:45:44;;;;;;;;;;;17.70;99.90;;;;;;5030923;28;19980;-31
2023/10/03 02:48:15;;;;;;;;;;;17.70;99.90;;;;;;5028436;28;19979;-31
2023/10/03 02:50:44;;;;;;;;;;;17.70;99.90;;;;;;5026328;28;20309;-32
2023/10/03 02:53:17;;;;;;;;;;;17.70;99.90;;;;;;5030963;28;19925;-31
2023/10/03 02:55:44;;;;;;;;;;;17.70;99.90;;;;;;5031296;28;19976;-31
2023/10/03 02:58:13;;;;;;;;;;;17.70;99.90;;;;;;5036949;28;19937;-31
2023/10/03 03:00:40;;;;;;;;;;;17.70;99.90;;;;;;5046262;28;19931;-32
2023/10/03 03:03:08;;;;;;;;;;;17.80;99.90;;;;;;5033583;28;20318;-33
2023/10/03 03:05:38;;;;;;;;;;;17.70;99.90;;;;;;5030787;28;19964;-32
2023/10/03 03:08:22;;;;;;;;;;;17.80;99.90;;;;;;5029938;28;19925;-31
2023/10/03 03:10:49;;;;;;;;;;;17.80;99.90;;;;;;5032085;28;19925;-31
2023/10/03 03:13:16;;;;;;;;;;;17.80;99.90;;;;;;5032222;28;19925;-32
2023/10/03 03:15:51;;;;;;;;;;;17.80;99.90;;;;;;5035422;28;19925;-31
2023/10/03 03:18:19;;;;;;;;;;;17.80;99.90;;;;;;5030446;28;19937;-32
2023/10/03 03:20:50;;;;;;;;;;;17.80;99.90;;;;;;5045161;28;19925;-32
2023/10/03 03:23:19;;;;;;;;;;;17.80;99.90;;;;;;5030620;28;19925;-32
2023/10/03 03:25:49;;;;;;;;;;;17.80;99.90;;;;;;5028738;28;20384;-32
2023/10/03 03:28:16;;;;;;;;;;;17.80;99.90;;;;;;5031248;28;19931;-32
2023/10/03 03:30:45;;;;;;;;;;;17.70;99.90;;;;;;5032140;28;19929;-32
2023/10/03 03:33:14;;;;;;;;;;;17.80;99.90;;;;;;5043122;28;19926;-33
2023/10/03 03:35:41;;;;;;;;;;;17.70;99.90;;;;;;5030221;28;19929;-32
2023/10/03 03:38:15;;;;;;;;;;;17.80;99.90;;;;;;5025507;28;19933;-32
2023/10/03 03:40:45;;;;;;;;;;;17.80;99.90;;;;;;5027860;28;19929;-32
2023/10/03 03:43:13;;;;;;;;;;;17.80;99.90;;;;;;5040071;28;20305;-33
2023/10/03 03:45:40;;;;;;;;;;;17.90;99.90;;;;;;5030854;28;20377;-35
2023/10/03 03:48:07;;;;;;;;;;;17.90;99.90;;;;;;5042445;28;19961;-32
2023/10/03 03:50:34;;;;;;;;;;;17.90;99.90;;;;;;5063634;28;19979;-33
2023/10/03 03:53:02;;;;;;;;;;;18.00;99.90;;;;;;5038426;28;19974;-33
2023/10/03 03:55:29;;;;;;;;;;;18.00;99.90;;;;;;5034422;28;20417;-33
2023/10/03 03:57:59;;;;;;;;;;;18.00;99.90;;;;;;5030512;28;20365;-32
2023/10/03 04:00:28;;;;;;;;;;;18.00;99.90;;;;;;5030567;28;20423;-32
2023/10/03 04:02:57;;;;;;;;;;;18.00;99.90;;;;;;5038737;28;19932;-32
2023/10/03 04:05:24;;;;;;;;;;;18.00;99.90;;;;;;5070213;28;19932;-33
2023/10/03 04:07:51;;;;;;;;;;;18.10;99.90;;;;;;5032395;28;19928;-32
2023/10/03 04:10:18;;;;;;;;;;;18.00;99.90;;;;;;5035234;28;19925;-32
2023/10/03 04:12:44;;;;;;;;;;;18.00;99.90;;;;;;5032433;28;20372;-32
2023/10/03 04:15:14;;;;;;;;;;;18.00;99.90;;;;;;5034219;28;19933;-33
2023/10/03 04:17:41;;;;;;;;;;;18.00;99.90;;;;;;5040451;28;20400;-32
2023/10/03 04:20:18;;;;;;;;;;;18.00;99.90;;;;;;5038017;28;20563;-32
2023/10/03 04:22:46;;;;;;;;;;;18.00;99.90;;;;;;5066929;28;19933;-32
2023/10/03 04:25:15;;;;;;;;;;;18.00;99.90;;;;;;5034768;28;20288;-32
2023/10/03 04:27:42;;;;;;;;;;;18.00;99.90;;;;;;5067236;28;19944;-34
2023/10/03 04:30:09;;;;;;;;;;;18.00;99.90;;;;;;5035424;28;19933;-31
2023/10/03 04:32:37;;;;;;;;;;;18.00;99.90;;;;;;5032971;28;20282;-31
2023/10/03 04:35:11;;;;;;;;;;;18.00;99.90;;;;;;5053259;28;19929;-32
2023/10/03 04:37:38;;;;;;;;;;;18.00;99.90;;;;;;5046888;28;20461;-31
2023/10/03 04:40:06;;;;;;;;;;;18.00;99.90;;;;;;5036670;28;20343;-31
2023/10/03 04:42:33;;;;;;;;;;;18.10;99.90;;;;;;5034188;28;19925;-31
2023/10/03 04:45:00;;;;;;;;;;;18.10;99.90;;;;;;5035090;28;19925;-31
2023/10/03 04:47:27;;;;;;;;;;;18.10;99.90;;;;;;5032283;28;20380;-32
2023/10/03 04:49:55;;;;;;;;;;;18.20;99.90;;;;;;5032419;28;19933;-32
2023/10/03 04:52:21;;;;;;;;;;;18.20;99.90;;;;;;5046797;28;20363;-31
2023/10/03 04:54:48;;;;;;;;;;;18.30;99.90;;;;;;5044118;28;20385;-32
2023/10/03 04:57:14;;;;;;;;;;;18.30;99.90;;;;;;5030780;28;19983;-32
2023/10/03 04:59:41;;;;;;;;;;;18.30;99.90;;;;;;5029887;28;19976;-31
2023/10/03 05:02:10;;;;;;;;;;;18.40;99.90;;;;;;5028477;28;19926;-31
2023/10/03 05:04:37;;;;;;;;;;;18.40;99.90;;;;;;5033658;28;19963;-32
2023/10/03 05:07:06;;;;;;;;;;;18.40;99.90;;;;;;5032965;28;19978;-31
2023/10/03 05:09:33;;;;;;;;;;;18.50;99.90;;;;;;5033188;28;19925;-31
2023/10/03 05:11:59;;;;;;;;;;;18.50;99.90;;;;;;5030227;28;19956;-31
2023/10/03 05:14:26;;;;;;;;;;;18.50;99.90;;;;;;5032683;28;20427;-32
2023/10/03 05:16:53;;;;;;;;;;;18.50;99.90;;;;;;5036632;28;20278;-32
2023/10/03 05:19:20;;;;;;;;;;;18.50;99.90;;;;;;5046164;28;20307;-32
2023/10/03 05:21:47;;;;;;;;;;;18.50;99.90;;;;;;5029187;28;20015;-31
2023/10/03 05:24:16;;;;;;;;;;;18.60;99.90;;;;;;5028845;28;19925;-32
2023/10/03 05:26:43;;;;;;;;;;;18.60;99.90;;;;;;5033559;28;19925;-31
2023/10/03 05:29:09;;;;;;;;;;;18.60;99.90;;;;;;5028071;28;19933;-32
2023/10/03 05:31:40;;;;;;;;;;;18.60;99.90;;;;;;5021949;28;19932;-32
2023/10/03 05:34:07;;;;;;;;;;;18.70;99.90;;;;;;5029448;28;19929;-34
2023/10/03 05:36:34;;;;;;;;;;;18.70;99.90;;;;;;5037325;28;19926;-32
2023/10/03 05:39:00;;;;;;;;;;;18.70;99.90;;;;;;5037154;28;19978;-33
2023/10/03 05:41:29;;;;;;;;;;;18.70;99.90;;;;;;5031849;28;19925;-34
2023/10/03 05:43:55;;;;;;;;;;;18.70;99.90;;;;;;5029048;28;20016;-33
2023/10/03 05:46:22;;;;;;;;;;;18.80;99.90;;;;;;5032900;28;20287;-32
2023/10/03 05:48:50;;;;;;;;;;;18.80;99.90;;;;;;5031539;28;20281;-32
2023/10/03 05:51:17;;;;;;;;;;;18.80;99.90;;;;;;5032198;28;19939;-32
2023/10/03 05:53:45;;;;;;;;;;;18.80;99.90;;;;;;5035041;28;19933;-32
2023/10/03 05:56:12;;;;;;;;;;;18.80;99.90;;;;;;5039161;28;20458;-32
2023/10/03 05:58:41;;;;;;;;;;;18.90;99.90;;;;;;5029868;28;20365;-32
2023/10/03 06:01:08;;;;;;;;;;;18.90;99.90;;;;;;5034585;28;19956;-37
2023/10/03 06:03:36;;;;;;;;;;;18.90;99.90;;;;;;5028797;28;19925;-32
2023/10/03 06:06:02;;;;;;;;;;;18.90;99.90;;;;;;5030508;28;19979;-32
2023/10/03 06:08:32;;;;;;;;;;;18.90;99.90;;;;;;5040677;28;19925;-32
2023/10/03 06:11:00;;;;;;;;;;;18.90;99.90;;;;;;5049371;28;20454;-32
2023/10/03 06:13:26;;;;;;;;;;;18.90;99.90;;;;;;5042835;28;19965;-31
2023/10/03 06:15:58;;;;;;;;;;;18.90;99.90;;;;;;5032209;28;19987;-33
2023/10/03 06:18:27;;;;;;;;;;;18.90;99.90;;;;;;5031270;28;19965;-32
2023/10/03 06:20:53;;;;;;;;;;;18.90;99.90;;;;;;5029131;28;20347;-33
2023/10/03 06:23:20;;;;;;;;;;;18.90;99.90;;;;;;5029681;28;19932;-34
2023/10/03 06:25:47;;;;;;;;;;;18.90;99.90;;;;;;5029480;28;20079;-34
2023/10/03 06:28:14;;;;;;;;;;;18.90;99.90;;;;;;5029744;28;19929;-33
2023/10/03 06:30:40;;;;;;;;;;;18.90;99.90;;;;;;5028944;28;19929;-33
2023/10/03 06:33:08;;;;;;;;;;;18.80;99.90;;;;;;5030241;28;19979;-32
2023/10/03 06:35:35;;;;;;;;;;;18.80;99.90;;;;;;5030442;28;19925;-31
2023/10/03 06:38:03;;;;;;;;;;;18.80;99.90;;;;;;5031179;28;20418;-32
2023/10/03 06:40:29;;;;;;;;;;;18.80;99.90;;;;;;5057962;28;19933;-34
2023/10/03 06:42:56;;;;;;;;;;;18.80;99.90;;;;;;5027355;28;19925;-33
2023/10/03 06:45:23;;;;;;;;;;;18.80;99.90;;;;;;5060773;28;19961;-32
2023/10/03 06:47:50;;;;;;;;;;;18.80;99.90;;;;;;5030343;28;19925;-33
2023/10/03 06:50:18;;;;;;;;;;;18.80;99.90;;;;;;5030674;28;20019;-32
2023/10/03 06:52:47;;;;;;;;;;;18.70;99.90;;;;;;5030173;28;20416;-32
2023/10/03 06:55:15;;;;;;;;;;;18.70;99.90;;;;;;5030440;28;19925;-32
2023/10/03 06:57:42;;;;;;;;;;;18.70;99.90;;;;;;5030444;28;20270;-34
2023/10/03 07:00:13;;;;;;;;;;;18.70;99.90;;;;;;5062408;28;20440;-33
2023/10/03 07:02:39;;;;;;;;;;;18.70;99.90;;;;;;5030461;28;19925;-32
2023/10/03 07:05:06;;;;;;;;;;;18.70;99.90;;;;;;5031201;28;19956;-33
2023/10/03 07:07:34;;;;;;;;;;;18.70;99.90;;;;;;5063366;28;20317;-33
2023/10/03 07:10:01;;;;;;;;;;;18.70;99.90;;;;;;5029659;28;19979;-33
2023/10/03 07:12:29;;;;;;;;;;;18.70;99.90;;;;;;5029907;28;19979;-33
2023/10/03 07:14:55;;;;;;;;;;;18.80;99.90;;;;;;5030017;28;20369;-33
2023/10/03 07:17:23;;;;;;;;;;;18.80;99.90;;;;;;5030181;28;19929;-32
2023/10/03 07:19:50;;;;;;;;;;;18.80;99.90;;;;;;5029903;28;19928;-33
2023/10/03 07:22:18;;;;;;;;;;;18.90;99.90;;;;;;5029970;28;20385;-33
2023/10/03 07:24:46;;;;;;;;;;;18.90;99.90;;;;;;5029943;28;19925;-32
2023/10/03 07:27:15;;;;;;;;;;;18.80;99.90;;;;;;5031133;28;19933;-33
2023/10/03 07:29:42;;;;;;;;;;;18.80;99.90;;;;;;5030756;28;19929;-32
2023/10/03 07:32:12;;;;;;;;;;;18.80;99.90;;;;;;5030588;28;19925;-34
2023/10/03 07:34:42;;;;;;;;;;;18.70;99.90;;;;;;5029600;28;19925;-33
2023/10/03 07:37:09;;;;;;;;;;;18.60;99.90;;;;;;5032012;28;19964;-33
2023/10/03 07:39:35;;;;;;;;;;;18.60;99.90;;;;;;5034561;28;19937;-33
2023/10/03 07:42:04;;;;;;;;;;;18.50;99.90;;;;;;5034127;28;20046;-33
2023/10/03 07:44:31;;;;;;;;;;;18.50;99.90;;;;;;5067337;28;19925;-34
2023/10/03 07:46:58;;;;;;;;;;;18.50;99.90;;;;;;5033087;28;19932;-32
2023/10/03 07:49:24;;;;;;;;;;;18.50;99.90;;;;;;5033787;28;19925;-33
2023/10/03 07:51:53;;;;;;;;;;;18.40;99.90;;;;;;5032855;28;19974;-33
2023/10/03 07:54:20;;;;;;;;;;;18.50;99.90;;;;;;5033511;28;19980;-32
2023/10/03 07:56:48;;;;;;;;;;;18.40;99.90;;;;;;5033185;28;19929;-32
2023/10/03 07:59:16;;;;;;;;;;;18.40;99.90;;;;;;5033705;28;19925;-31
2023/10/03 08:01:42;;;;;;;;;;;18.30;99.90;;;;;;5034633;28;19975;-33
2023/10/03 08:04:12;;;;;;;;;;;18.30;99.90;;;;;;5033482;28;20507;-31
2023/10/03 08:06:39;;;;;;;;;;;18.20;99.90;;;;;;5029232;28;20455;-32
2023/10/03 08:09:08;;;;;;;;;;;18.20;99.90;;;;;;5028432;28;19929;-32
2023/10/03 08:11:35;;;;;;;;;;;18.10;99.90;;;;;;5031272;28;19926;-32
2023/10/03 08:14:07;;;;;;;;;;;18.10;99.90;;;;;;5033809;28;19929;-34
2023/10/03 08:16:35;;;;;;;;;;;18.00;99.90;;;;;;5028601;28;20376;-31
2023/10/03 08:19:02;;;;;;;;;;;18.00;99.90;;;;;;5030888;28;19933;-33
2023/10/03 08:21:29;;;;;;;;;;;17.90;99.90;;;;;;5022953;28;19979;-30
2023/10/03 08:23:55;;;;;;;;;;;17.90;99.90;;;;;;5032887;28;19925;-30
2023/10/03 08:26:22;;;;;;;;;;;17.90;99.90;;;;;;5034203;28;20324;-30
2023/10/03 08:28:59;;;;;;;;;;;17.80;99.90;;;;;;5032444;28;19925;-31
2023/10/03 08:31:25;;;;;;;;;;;17.80;99.90;;;;;;5033002;28;19925;-31
2023/10/03 08:33:55;;;;;;;;;;;17.80;99.90;;;;;;5033826;28;19925;-32
2023/10/03 08:36:22;;;;;;;;;;;17.80;99.90;;;;;;5033947;28;19929;-30
2023/10/03 08:38:49;;;;;;;;;;;17.80;99.90;;;;;;5033774;28;19925;-30
2023/10/03 08:41:17;;;;;;;;;;;17.70;99.90;;;;;;5032789;28;20320;-30
2023/10/03 08:43:44;;;;;;;;;;;17.70;99.90;;;;;;5065423;28;20004;-33
2023/10/03 08:46:11;;;;;;;;;;;17.60;99.90;;;;;;5031342;28;20411;-32
2023/10/03 08:48:43;;;;;;;;;;;17.50;99.90;;;;;;5031158;28;19931;-32
2023/10/03 08:51:13;;;;;;;;;;;17.50;99.90;;;;;;5030923;28;19925;-32
2023/10/03 08:53:40;;;;;;;;;;;17.50;99.90;;;;;;5033738;28;19925;-33
2023/10/03 08:56:08;;;;;;;;;;;17.40;99.90;;;;;;5033693;28;20375;-31
2023/10/03 08:58:35;;;;;;;;;;;17.40;99.90;;;;;;5033176;28;19925;-31
2023/10/03 09:01:02;;;;;;;;;;;17.50;99.90;;;;;;5048037;28;19929;-32
2023/10/03 09:03:42;;;;;;;;;;;17.40;99.90;;;;;;5065196;28;19998;-31
2023/10/03 09:06:09;;;;;;;;;;;17.40;99.90;;;;;;5032227;28;20305;-32
2023/10/03 09:08:37;;;;;;;;;;;17.40;99.90;;;;;;5033309;28;19971;-31
2023/10/03 09:11:13;;;;;;;;;;;17.40;99.90;;;;;;5033094;28;19929;-31
2023/10/03 09:13:40;;;;;;;;;;;17.40;99.90;;;;;;5027687;28;20289;-33
2023/10/03 09:16:08;;;;;;;;;;;17.40;99.90;;;;;;5033522;28;19925;-32
2023/10/03 09:18:40;;;;;;;;;;;17.40;99.90;;;;;;5033165;28;19925;-31
2023/10/03 09:21:07;;;;;;;;;;;17.40;99.90;;;;;;5030684;28;19925;-31
2023/10/03 09:23:39;;;;;;;;;;;17.40;99.90;;;;;;5031097;28;20307;-34
2023/10/03 09:26:08;;;;;;;;;;;17.30;99.90;;;;;;5030976;28;19979;-33
2023/10/03 09:28:40;;;;;;;;;;;17.20;99.90;;;;;;5031122;28;19925;-32
2023/10/03 09:31:09;;;;;;;;;;;17.00;99.90;;;;;;5033130;28;19925;-31
2023/10/03 09:33:39;;;;;;;;;;;16.90;99.90;;;;;;5032692;28;20020;-32
2023/10/03 09:36:06;;;;;;;;;;;16.80;99.90;;;;;;5029384;28;19925;-31
2023/10/03 09:38:32;;;;;;;;;;;16.70;99.90;;;;;;5030892;28;20312;-31
2023/10/03 09:40:59;;;;;;;;;;;16.70;99.90;;;;;;5032709;28;20020;-29
2023/10/03 09:43:28;;;;;;;;;;;16.70;99.90;;;;;;5030741;28;19925;-30
2023/10/03 09:45:56;;;;;;;;;;;16.70;99.90;;;;;;5031707;28;20304;-31
2023/10/03 09:48:24;;;;;;;;;;;16.70;99.90;;;;;;5032661;28;19932;-30
2023/10/03 09:50:53;;;;;;;;;;;16.70;99.90;;;;;;5032237;28;19979;-30
2023/10/03 09:53:19;;;;;;;;;;;16.60;99.90;;;;;;5028355;28;19932;-31
2023/10/03 09:55:49;;;;;;;;;;;16.60;99.90;;;;;;5032475;28;19925;-31
2023/10/03 09:58:24;;;;;;;;;;;16.50;99.90;;;;;;5031410;28;20455;-32
2023/10/03 10:00:52;;;;;;;;;;;16.50;99.90;;;;;;5029136;28;19932;-32
2023/10/03 10:03:25;;;;;;;;;;;16.50;99.90;;;;;;5031237;28;19964;-32
2023/10/03 10:05:59;;;;;;;;;;;16.50;99.90;;;;;;5031371;28;20440;-30
2023/10/03 10:08:29;;;;;;;;;;;16.40;99.90;;;;;;5027549;28;20052;-30
2023/10/03 10:11:07;;;;;;;;;;;16.50;99.90;;;;;;5011498;28;20381;-31
2023/10/03 10:13:36;;;;;;;;;;;16.40;99.90;;;;;;5012689;28;19930;-30
2023/10/03 10:16:20;;;;;;;;;;;16.40;99.90;;;;;;5029828;28;19971;-30
2023/10/03 10:19:01;;;;;;;;;;;16.40;99.90;;;;;;5031593;28;19925;-31
2023/10/03 10:21:30;;;;;;;;;;;16.40;99.90;;;;;;5030843;28;19925;-31
2023/10/03 10:24:16;;;;;;;;;;;16.40;99.90;;;;;;5030884;28;19987;-30
2023/10/03 10:26:48;;;;;;;;;;;16.40;99.90;;;;;;5028870;28;20369;-30
2023/10/03 10:29:19;;;;;;;;;;;16.40;99.90;;;;;;5030031;28;19936;-30
2023/10/03 10:31:49;;;;;;;;;;;16.40;99.90;;;;;;5030308;28;20417;-30
2023/10/03 10:34:35;;;;;;;;;;;16.40;99.90;;;;;;5027529;28;19932;-31
2023/10/03 10:37:09;;;;;;;;;;;16.40;99.90;;;;;;5030299;28;20020;-31
2023/10/03 10:39:54;;;;;;;;;;;16.40;99.90;;;;;;5029166;28;19925;-31
2023/10/03 10:42:24;;;;;;;;;;;16.40;99.90;;;;;;5031464;28;20024;-31
2023/10/03 10:45:16;;;;;;;;;;;16.50;99.90;;;;;;5031402;28;20593;-32
2023/10/03 10:47:45;;;;;;;;;;;16.50;99.90;;;;;;5027921;28;19973;-31
2023/10/03 10:50:12;;;;;;;;;;;16.50;99.90;;;;;;5030129;28;20373;-30
2023/10/03 10:52:49;;;;;;;;;;;16.50;99.90;;;;;;5029728;28;19925;-34
2023/10/03 10:55:16;;;;;;;;;;;16.50;99.90;;;;;;5029618;28;19936;-31
2023/10/03 10:57:43;;;;;;;;;;;16.50;99.90;;;;;;5027981;28;19979;-31
2023/10/03 11:00:15;;;;;;;;;;;16.40;99.90;;;;;;5027405;28;19936;-31
2023/10/03 11:02:43;;;;;;;;;;;16.40;99.90;;;;;;5031394;28;19925;-31
2023/10/03 11:05:11;;;;;;;;;;;16.40;99.90;;;;;;5030952;28;20408;-30
2023/10/03 11:07:42;;;;;;;;;;;16.40;99.90;;;;;;5029427;28;20403;-31
2023/10/03 11:10:12;;;;;;;;;;;16.50;99.90;;;;;;5030505;28;19926;-31
2023/10/03 11:12:38;;;;;;;;;;;16.50;99.90;;;;;;5029368;28;19979;-34
2023/10/03 11:15:09;;;;;;;;;;;16.60;99.90;;;;;;5031275;28;20023;-31
2023/10/03 11:17:37;;;;;;;;;;;16.70;99.90;;;;;;5029678;28;19948;-31
2023/10/03 11:20:08;;;;;;;;;;;16.70;99.90;;;;;;5029709;28;19925;-31
2023/10/03 11:22:39;;;;;;;;;;;16.80;99.90;;;;;;5029144;28;20119;-32
2023/10/03 11:25:08;;;;;;;;;;;16.80;99.90;;;;;;5029637;28;19933;-30
2023/10/03 11:27:36;;;;;;;;;;;16.90;99.90;;;;;;5029486;28;20007;-33
2023/10/03 11:30:13;;;;;;;;;;;16.90;99.90;;;;;;5031015;28;19929;-32
2023/10/03 11:32:40;;;;;;;;;;;16.90;99.90;;;;;;5027921;28;19979;-32
2023/10/03 11:35:16;;;;;;;;;;;16.80;99.90;;;;;;5027423;28;20333;-33
2023/10/03 11:37:44;;;;;;;;;;;16.70;99.90;;;;;;5053693;28;19995;-31
2023/10/03 11:40:14;;;;;;;;;;;16.70;99.90;;;;;;5030977;28;19925;-31
2023/10/03 11:42:48;;;;;;;;;;;16.60;99.90;;;;;;5028695;28;20462;-31
2023/10/03 11:45:15;;;;;;;;;;;16.50;99.90;;;;;;5029649;28;19933;-31
2023/10/03 11:47:41;;;;;;;;;;;16.50;99.90;;;;;;5029241;28;19925;-30
2023/10/03 11:50:09;;;;;;;;;;;16.30;99.90;;;;;;5029288;28;19937;-31
2023/10/03 11:52:37;;;;;;;;;;;16.20;99.90;;;;;;5028962;28;19925;-31
2023/10/03 11:55:09;;;;;;;;;;;16.00;99.90;;;;;;5029739;28;19979;-32
2023/10/03 11:57:36;;;;;;;;;;;16.00;99.90;;;;;;5030669;28;19940;-32
2023/10/03 12:00:14;;;;;;;;;;;15.90;99.90;;;;;;5029840;28;19967;-35
2023/10/03 12:02:41;;;;;;;;;;;15.90;99.90;;;;;;5028854;28;20364;-31
2023/10/03 12:05:11;;;;;;;;;;;15.90;99.90;;;;;;5029716;28;19925;-32
2023/10/03 12:07:39;;;;;;;;;;;15.80;99.90;;;;;;5030295;28;20025;-31
2023/10/03 12:10:10;;;;;;;;;;;15.70;99.90;;;;;;5030360;28;19937;-32
2023/10/03 12:12:37;;;;;;;;;;;15.60;99.90;;;;;;5028973;28;20277;-31
2023/10/03 12:15:07;;;;;;;;;;;15.50;99.90;;;;;;5028602;28;20352;-31
2023/10/03 12:17:33;;;;;;;;;;;15.40;99.90;;;;;;5027547;28;19926;-31
2023/10/03 12:20:00;;;;;;;;;;;15.40;99.90;;;;;;5058778;28;19925;-32
2023/10/03 12:22:27;;;;;;;;;;;15.40;99.90;;;;;;5024974;28;19929;-31
2023/10/03 12:24:53;;;;;;;;;;;15.40;99.90;;;;;;5027091;28;19929;-31
2023/10/03 12:27:21;;;;;;;;;;;15.50;99.90;;;;;;5031486;28;19929;-31
2023/10/03 12:29:48;;;;;;;;;;;15.60;99.90;;;;;;5032508;28;20447;-31
2023/10/03 12:32:14;;;;;;;;;;;15.60;99.90;;;;;;5033947;28;20527;-31
2023/10/03 12:34:42;;;;;;;;;;;15.50;99.90;;;;;;5033432;28;19925;-31
2023/10/03 12:37:11;;;;;;;;;;;15.50;99.90;;;;;;5032505;28;19933;-31
2023/10/03 12:39:38;;;;;;;;;;;15.60;99.90;;;;;;5034319;28;19971;-30
2023/10/03 12:42:06;;;;;;;;;;;15.60;99.90;;;;;;5031365;28;19937;-32
2023/10/03 12:44:34;;;;;;;;;;;15.60;99.90;;;;;;5031468;28;19926;-31
2023/10/03 12:47:00;;;;;;;;;;;15.70;99.90;;;;;;5038726;28;19928;-31
2023/10/03 12:49:27;;;;;;;;;;;15.80;99.90;;;;;;5028780;28;19980;-32
2023/10/03 12:51:54;;;;;;;;;;;15.90;99.90;;;;;;5030806;28;20448;-30
2023/10/03 12:54:23;;;;;;;;;;;15.90;99.90;;;;;;5032500;28;19933;-32
2023/10/03 12:56:49;;;;;;;;;;;16.00;99.90;;;;;;5045976;28;20301;-31
2023/10/03 12:59:17;;;;;;;;;;;16.10;99.90;;;;;;5032217;28;20380;-30
2023/10/03 13:01:46;;;;;;;;;;;16.20;99.90;;;;;;5032991;28;20007;-30
2023/10/03 13:04:12;;;;;;;;;;;16.30;99.90;;;;;;5030505;28;19925;-31
2023/10/03 13:06:39;;;;;;;;;;;16.40;99.90;;;;;;5029748;28;19933;-31
2023/10/03 13:09:06;;;;;;;;;;;16.40;99.90;;;;;;5030034;28;19929;-32
2023/10/03 13:11:33;;;;;;;;;;;16.40;99.90;;;;;;5031363;28;19925;-30
2023/10/03 13:14:03;;;;;;;;;;;16.50;99.90;;;;;;5031686;28;19925;-30
2023/10/03 13:16:30;;;;;;;;;;;16.50;99.90;;;;;;5029232;28;20018;-30
2023/10/03 13:19:00;;;;;;;;;;;16.60;99.90;;;;;;5031043;28;20060;-32
2023/10/03 13:21:27;;;;;;;;;;;16.70;99.90;;;;;;5032372;28;19947;-30
2023/10/03 13:23:54;;;;;;;;;;;16.80;99.90;;;;;;5031378;28;19925;-31
2023/10/03 13:26:21;;;;;;;;;;;16.80;99.90;;;;;;5030748;28;19926;-32
2023/10/03 13:28:48;;;;;;;;;;;16.90;99.90;;;;;;5028186;28;20328;-31
2023/10/03 13:31:14;;;;;;;;;;;16.90;99.90;;;;;;5036345;28;19932;-31
2023/10/03 13:33:41;;;;;;;;;;;16.90;99.90;;;;;;5032702;28;20351;-32
2023/10/03 13:36:09;;;;;;;;;;;16.90;99.90;;;;;;5039751;28;20483;-31
2023/10/03 13:38:36;;;;;;;;;;;16.90;99.90;;;;;;5036639;28;19956;-31
2023/10/03 13:41:04;;;;;;;;;;;16.80;99.90;;;;;;5042489;28;19929;-31
2023/10/03 13:43:31;;;;;;;;;;;16.90;99.90;;;;;;5035742;28;19929;-32
2023/10/03 13:45:58;;;;;;;;;;;16.90;99.90;;;;;;5034457;28;19980;-31
2023/10/03 13:48:25;;;;;;;;;;;17.00;99.90;;;;;;5044398;28;20369;-31
2023/10/03 13:50:52;;;;;;;;;;;17.00;99.90;;;;;;5039252;28;20075;-31
2023/10/03 13:53:20;;;;;;;;;;;16.90;99.90;;;;;;5034638;28;19925;-31
2023/10/03 13:55:47;;;;;;;;;;;16.90;99.90;;;;;;5058641;28;19925;-31
2023/10/03 13:58:14;;;;;;;;;;;17.00;99.90;;;;;;5020607;28;20011;-32
2023/10/03 14:00:41;;;;;;;;;;;17.00;99.90;;;;;;5042409;28;20292;-32
2023/10/03 14:03:17;;;;;;;;;;;17.10;99.90;;;;;;5036437;28;19925;-31
2023/10/03 14:05:45;;;;;;;;;;;17.20;99.90;;;;;;5052510;28;19975;-32
2023/10/03 14:08:12;;;;;;;;;;;17.20;99.90;;;;;;5032884;28;19926;-31
2023/10/03 14:10:44;;;;;;;;;;;17.10;99.90;;;;;;5031957;28;20343;-32
2023/10/03 14:13:11;;;;;;;;;;;17.00;99.90;;;;;;5028644;28;19968;-32
2023/10/03 14:15:38;;;;;;;;;;;16.80;99.90;;;;;;5032399;28;20012;-31
2023/10/03 14:18:05;;;;;;;;;;;16.70;99.90;;;;;;5038860;28;20293;-30
2023/10/03 14:20:32;;;;;;;;;;;16.60;99.90;;;;;;5035447;28;19971;-31
2023/10/03 14:22:58;;;;;;;;;;;16.50;99.90;;;;;;5044978;28;20001;-31